createdAt,value
2023-10-19T00:01:21.129Z,47.2
2023-10-19T00:04:21.030Z,52.9
2023-10-19T00:07:21.008Z,47.5
2023-10-19T00:10:21.099Z,46.9
2023-10-19T00:13:21.012Z,46.7
2023-10-19T00:16:21.121Z,50.9
2023-10-19T00:19:21.024Z,49.7
2023-10-19T00:22:20.955Z,49.7
2023-10-19T00:25:21.161Z,52.1
2023-10-19T00:28:20.935Z,52.6
2023-10-19T00:31:21.119Z,49.7
2023-10-19T00:34:21.085Z,51.9
2023-10-19T00:37:21.067Z,49.7
2023-10-19T00:40:21.054Z,53.5
2023-10-19T00:43:21.117Z,52.5
2023-10-19T00:46:24.570Z,53.7
2023-10-19T00:49:21.148Z,53.2
2023-10-19T00:52:21.151Z,54.6
2023-10-19T00:55:21.704Z,54.6
2023-10-19T00:58:21.053Z,58.9
2023-10-19T01:01:21.193Z,54.6
2023-10-19T01:04:21.179Z,53.3
2023-10-19T01:07:21.160Z,53.2
2023-10-19T01:10:21.054Z,53.2
2023-10-19T01:13:21.168Z,51.9
2023-10-19T01:16:21.447Z,54.9
2023-10-19T01:19:21.313Z,55.1
2023-10-19T01:22:20.913Z,57.5
2023-10-19T01:25:21.133Z,55.1
2023-10-19T01:28:21.036Z,54.6
2023-10-19T01:31:21.107Z,56.4
2023-10-19T01:34:21.060Z,57.1
2023-10-19T01:37:21.097Z,58.1
2023-10-19T01:40:20.981Z,57.9
2023-10-19T01:43:21.099Z,58.9
2023-10-19T01:46:21.047Z,55.4
2023-10-19T01:49:21.278Z,53.6
2023-10-19T01:52:21.030Z,55.0
2023-10-19T01:55:21.395Z,55.0
2023-10-19T01:58:21.781Z,52.3
2023-10-19T02:01:21.261Z,52.5
2023-10-19T02:04:21.486Z,52.9
2023-10-19T02:07:21.095Z,53.3
2023-10-19T02:10:21.014Z,54.7
2023-10-19T02:13:20.999Z,52.8
2023-10-19T02:16:21.039Z,51.4
2023-10-19T02:19:21.102Z,52.3
2023-10-19T02:22:21.065Z,48.1
2023-10-19T02:25:21.272Z,51.6
2023-10-19T02:28:31.534Z,50.9
2023-10-19T02:31:21.142Z,49.7
2023-10-19T02:34:21.105Z,44.7
2023-10-19T02:37:20.963Z,46.7
2023-10-19T02:40:21.004Z,49.7
2023-10-19T02:43:21.015Z,44.7
2023-10-19T02:46:21.073Z,46.4
2023-10-19T02:49:21.289Z,46.9
2023-10-19T02:52:23.457Z,45.6
2023-10-19T02:55:21.418Z,44.7
2023-10-19T02:58:21.197Z,45.8
2023-10-19T03:01:21.586Z,45.3
2023-10-19T03:04:21.335Z,43.6
2023-10-19T03:07:21.016Z,46.1
2023-10-19T03:10:21.073Z,42.2
2023-10-19T03:13:20.956Z,42.5
2023-10-19T03:16:21.068Z,45.3
2023-10-19T03:19:21.071Z,45.6
2023-10-19T03:22:21.052Z,41.7
2023-10-19T03:25:21.283Z,43.9
2023-10-19T03:28:21.055Z,43.9
2023-10-19T03:31:21.219Z,43.6
2023-10-19T03:34:21.484Z,38.9
2023-10-19T03:37:21.579Z,40.8
2023-10-19T03:40:21.055Z,37.8
2023-10-19T03:43:21.069Z,32.8
2023-10-19T03:46:21.086Z,35.3
2023-10-19T03:49:21.116Z,35.6
2023-10-19T03:52:21.263Z,33.9
2023-10-19T03:55:21.209Z,33.9
2023-10-19T03:58:21.150Z,33.6
2023-10-19T04:01:21.176Z,35.0
2023-10-19T04:04:21.418Z,32.5
2023-10-19T04:07:21.178Z,30.0
2023-10-19T04:10:21.160Z,30.0
2023-10-19T04:13:21.069Z,34.2
2023-10-19T04:16:21.120Z,36.1
2023-10-19T04:19:21.149Z,36.7
2023-10-19T04:22:21.034Z,37.8
2023-10-19T04:25:21.332Z,37.5
2023-10-19T04:28:21.151Z,41.7
2023-10-19T04:31:21.407Z,43.6
2023-10-19T04:34:21.163Z,41.4
2023-10-19T04:37:21.122Z,37.8
2023-10-19T04:40:21.094Z,33.1
2023-10-19T04:43:21.099Z,32.5
2023-10-19T04:46:21.180Z,36.7
2023-10-19T04:49:21.247Z,40.8
2023-10-19T04:52:21.104Z,33.6
2023-10-19T04:55:21.300Z,32.8
2023-10-19T04:58:21.095Z,31.4
2023-10-19T05:01:21.105Z,35.3
2023-10-19T05:04:21.224Z,30.0
2023-10-19T05:07:21.119Z,33.3
2023-10-19T05:10:21.240Z,35.6
2023-10-19T05:13:21.136Z,30.6
2023-10-19T05:16:21.119Z,34.4
2023-10-19T05:19:21.101Z,32.5
2023-10-19T05:22:21.045Z,33.9
2023-10-19T05:25:21.329Z,34.2
2023-10-19T05:28:22.029Z,27.5
2023-10-19T05:31:21.188Z,31.4
2023-10-19T05:34:21.124Z,33.1
2023-10-19T05:37:21.094Z,32.5
2023-10-19T05:40:21.302Z,36.9
2023-10-19T05:43:21.035Z,38.6
2023-10-19T05:46:21.083Z,33.6
2023-10-19T05:49:21.102Z,40.3
2023-10-19T05:52:21.127Z,38.6
2023-10-19T05:55:21.314Z,38.3
2023-10-19T05:58:21.168Z,42.8
2023-10-19T06:01:21.340Z,39.4
2023-10-19T06:04:21.855Z,33.1
2023-10-19T06:07:21.086Z,40.3
2023-10-19T06:10:21.098Z,40.3
2023-10-19T06:13:21.051Z,40.8
2023-10-19T06:16:21.147Z,58.0
2023-10-19T06:19:21.939Z,43.3
2023-10-19T06:22:21.074Z,40.0
2023-10-19T06:25:21.436Z,38.6
2023-10-19T06:28:21.025Z,38.1
2023-10-19T06:31:21.235Z,40.0
2023-10-19T06:34:21.458Z,38.3
2023-10-19T06:37:21.014Z,35.3
2023-10-19T06:40:20.947Z,41.7
2023-10-19T06:43:20.953Z,36.7
2023-10-19T06:46:21.228Z,36.1
2023-10-19T06:49:20.999Z,46.7
2023-10-19T06:52:21.007Z,41.7
2023-10-19T06:55:21.259Z,41.7
2023-10-19T06:58:21.141Z,35.0
2023-10-19T07:01:21.280Z,41.4
2023-10-19T07:04:21.402Z,46.1
2023-10-19T07:07:21.022Z,40.8
2023-10-19T07:10:21.088Z,40.0
2023-10-19T07:13:23.056Z,43.3
2023-10-19T07:16:21.264Z,43.3
2023-10-19T07:19:21.175Z,38.6
2023-10-19T07:22:21.028Z,36.7
2023-10-19T07:25:21.319Z,36.9
2023-10-19T07:28:31.959Z,34.2
2023-10-19T07:31:21.188Z,35.0
2023-10-19T07:34:21.510Z,34.4
2023-10-19T07:37:20.995Z,35.0
2023-10-19T07:40:21.019Z,41.1
2023-10-19T07:43:21.176Z,49.7
2023-10-19T07:46:21.199Z,40.3
2023-10-19T07:49:21.006Z,43.1
2023-10-19T07:52:20.982Z,43.9
2023-10-19T07:55:21.327Z,48.1
2023-10-19T07:58:21.100Z,51.1
2023-10-19T08:01:21.312Z,46.9
2023-10-19T08:04:21.313Z,53.6
2023-10-19T08:07:20.985Z,54.7
2023-10-19T08:10:21.076Z,46.9
2023-10-19T08:13:24.349Z,47.8
2023-10-19T08:16:21.274Z,40.0
2023-10-19T08:19:21.229Z,35.0
2023-10-19T08:22:21.025Z,36.7
2023-10-19T08:25:21.224Z,36.4
2023-10-19T08:28:20.952Z,38.1
2023-10-19T08:31:23.579Z,38.9
2023-10-19T08:34:21.061Z,39.7
2023-10-19T08:37:21.006Z,38.9
2023-10-19T08:40:20.991Z,38.9
2023-10-19T08:43:20.899Z,35.3
2023-10-19T08:46:21.293Z,35.0
2023-10-19T08:49:21.054Z,36.9
2023-10-19T08:52:21.099Z,36.7
2023-10-19T08:55:27.171Z,40.6
2023-10-19T08:58:21.173Z,42.2
2023-10-19T09:01:21.565Z,40.3
2023-10-19T09:04:21.177Z,38.9
2023-10-19T09:07:21.078Z,38.6
2023-10-19T09:10:21.117Z,37.2
2023-10-19T09:13:21.421Z,40.8
2023-10-19T09:16:21.466Z,39.7
2023-10-19T09:19:21.161Z,36.7
2023-10-19T09:22:20.965Z,35.8
2023-10-19T09:25:21.367Z,38.3
2023-10-19T09:28:21.001Z,39.2
2023-10-19T09:31:21.190Z,39.4
2023-10-19T09:34:20.990Z,37.2
2023-10-19T09:37:20.983Z,40.3
2023-10-19T09:40:20.939Z,39.2
2023-10-19T09:43:21.001Z,38.9
2023-10-19T09:46:21.020Z,39.4
2023-10-19T09:49:21.306Z,35.0
2023-10-19T09:52:32.599Z,33.6
2023-10-19T09:58:21.066Z,33.3
2023-10-19T10:01:21.272Z,36.4
2023-10-19T10:04:21.473Z,35.6
2023-10-19T10:07:32.155Z,36.7
2023-10-19T10:10:21.044Z,39.4
2023-10-19T10:13:21.015Z,38.9
2023-10-19T10:16:21.165Z,35.8
2023-10-19T10:19:21.046Z,38.9
2023-10-19T10:22:21.028Z,40.3
2023-10-19T10:25:21.549Z,39.4
2023-10-19T10:28:21.065Z,41.7
2023-10-19T10:31:21.238Z,45.3
2023-10-19T10:34:22.859Z,43.3
2023-10-19T10:37:21.120Z,45.3
2023-10-19T10:40:21.018Z,44.2
2023-10-19T10:43:21.016Z,45.0
2023-10-19T10:46:21.151Z,41.9
2023-10-19T10:49:21.225Z,44.2
2023-10-19T10:52:21.174Z,40.0
2023-10-19T10:55:21.275Z,43.9
2023-10-19T10:58:22.477Z,40.3
2023-10-19T11:01:21.571Z,45.3
2023-10-19T11:04:21.061Z,46.4
2023-10-19T11:07:21.076Z,41.7
2023-10-19T11:10:20.935Z,44.4
2023-10-19T11:13:21.069Z,40.0
2023-10-19T11:16:21.273Z,41.7
2023-10-19T11:19:21.198Z,45.3
2023-10-19T11:22:20.986Z,44.7
2023-10-19T11:25:21.354Z,43.1
2023-10-19T11:28:21.027Z,51.1
2023-10-19T11:31:21.406Z,45.3
2023-10-19T11:34:21.156Z,44.4
2023-10-19T11:37:21.121Z,42.2
2023-10-19T11:40:21.066Z,46.7
2023-10-19T11:43:20.979Z,45.8
2023-10-19T11:46:21.091Z,43.6
2023-10-19T11:49:21.315Z,41.9
2023-10-19T11:52:21.100Z,46.1
2023-10-19T11:55:21.286Z,45.8
2023-10-19T11:58:21.032Z,43.3
2023-10-19T12:01:21.197Z,43.3
2023-10-19T12:04:21.333Z,42.2
2023-10-19T12:07:20.954Z,50.0
2023-10-19T12:10:21.108Z,45.8
2023-10-19T12:13:33.584Z,42.2
2023-10-19T12:16:21.167Z,42.8
2023-10-19T12:19:21.157Z,46.4
2023-10-19T12:22:21.059Z,43.6
2023-10-19T12:25:21.519Z,39.4
2023-10-19T12:28:21.031Z,45.6
2023-10-19T12:31:21.473Z,41.1
2023-10-19T12:34:21.034Z,40.0
2023-10-19T12:37:21.245Z,43.1
2023-10-19T12:40:21.520Z,40.3
2023-10-19T12:43:21.035Z,41.9
2023-10-19T12:46:21.109Z,41.9
2023-10-19T12:49:21.044Z,40.3
2023-10-19T12:52:20.981Z,41.9
2023-10-19T12:55:22.804Z,41.4
2023-10-19T12:58:21.077Z,41.1
2023-10-19T13:01:22.862Z,46.1
2023-10-19T13:04:21.557Z,42.8
2023-10-19T13:07:22.834Z,41.9
2023-10-19T13:10:21.035Z,40.0
2023-10-19T13:13:22.312Z,41.4
2023-10-19T13:16:21.236Z,41.7
2023-10-19T13:19:21.252Z,42.8
2023-10-19T13:22:21.006Z,43.9
2023-10-19T13:25:21.262Z,40.8
2023-10-19T13:28:21.127Z,43.3
2023-10-19T13:31:21.179Z,45.8
2023-10-19T13:34:21.208Z,47.8
2023-10-19T13:37:20.981Z,45.6
2023-10-19T13:40:21.242Z,43.9
2023-10-19T13:43:20.981Z,46.9
2023-10-19T13:46:21.155Z,45.0
2023-10-19T13:49:21.069Z,42.2
2023-10-19T13:52:21.205Z,46.1
2023-10-19T13:55:21.365Z,41.4
2023-10-19T13:58:21.045Z,44.2
2023-10-19T14:01:23.811Z,42.2
2023-10-19T14:04:21.462Z,41.9
2023-10-19T14:07:21.193Z,47.2
2023-10-19T14:10:21.043Z,44.4
2023-10-19T14:13:21.405Z,39.2
2023-10-19T14:16:21.775Z,43.6
2023-10-19T14:19:21.200Z,42.5
2023-10-19T14:22:21.043Z,42.5
2023-10-19T14:25:22.165Z,43.1
2023-10-19T14:28:21.053Z,43.1
2023-10-19T14:31:21.096Z,43.3
2023-10-19T14:34:21.329Z,42.8
2023-10-19T14:37:20.932Z,40.0
2023-10-19T14:40:21.001Z,41.9
2023-10-19T14:43:21.019Z,38.6
2023-10-19T14:46:21.110Z,40.6
2023-10-19T14:49:24.109Z,46.9
2023-10-19T14:52:21.758Z,51.9
2023-10-19T14:55:21.322Z,43.1
2023-10-19T14:58:20.980Z,46.1
2023-10-19T15:01:23.913Z,44.2
2023-10-19T15:04:21.229Z,45.6
2023-10-19T15:07:24.972Z,41.1
2023-10-19T15:10:22.454Z,46.4
2023-10-19T15:13:21.031Z,44.7
2023-10-19T15:16:21.211Z,41.1
2023-10-19T15:19:21.101Z,45.0
2023-10-19T15:22:20.963Z,45.8
2023-10-19T15:25:21.149Z,46.1
2023-10-19T15:28:21.369Z,45.6
2023-10-19T15:31:22.166Z,44.2
2023-10-19T15:34:20.986Z,45.3
2023-10-19T15:37:21.097Z,46.4
2023-10-19T15:40:21.027Z,43.1
2023-10-19T15:43:21.021Z,46.1
2023-10-19T15:46:21.105Z,43.3
2023-10-19T15:49:21.008Z,48.6
2023-10-19T15:52:20.996Z,43.9
2023-10-19T15:55:21.260Z,41.7
2023-10-19T15:58:21.075Z,44.4
2023-10-19T16:01:21.450Z,43.9
2023-10-19T16:04:21.567Z,44.2
2023-10-19T16:07:20.982Z,43.3
2023-10-19T16:10:21.029Z,45.6
2023-10-19T16:13:21.101Z,45.8
2023-10-19T16:16:21.359Z,45.0
2023-10-19T16:19:22.011Z,44.4
2023-10-19T16:22:21.042Z,46.7
2023-10-19T16:25:21.261Z,47.2
2023-10-19T16:28:20.949Z,51.4
2023-10-19T16:31:21.221Z,49.4
2023-10-19T16:34:21.098Z,51.9
2023-10-19T16:37:20.937Z,47.5
2023-10-19T16:40:21.053Z,48.9
2023-10-19T16:43:20.975Z,48.3
2023-10-19T16:46:21.132Z,46.9
2023-10-19T16:49:21.062Z,44.4
2023-10-19T16:52:21.079Z,45.0
2023-10-19T16:55:21.099Z,48.6
2023-10-19T16:58:21.085Z,49.2
2023-10-19T17:01:21.299Z,45.3
2023-10-19T17:04:21.546Z,52.9
2023-10-19T17:07:21.023Z,52.8
2023-10-19T17:10:21.022Z,47.5
2023-10-19T17:13:21.017Z,51.5
2023-10-19T17:16:21.085Z,48.9
2023-10-19T17:19:21.233Z,51.6
2023-10-19T17:22:21.102Z,51.9
2023-10-19T17:25:21.234Z,54.7
2023-10-19T17:28:21.048Z,48.6
2023-10-19T17:31:21.232Z,52.2
2023-10-19T17:34:31.370Z,49.4
2023-10-19T17:37:21.159Z,53.2
2023-10-19T17:40:21.040Z,52.6
2023-10-19T17:43:20.991Z,49.7
2023-10-19T17:46:21.170Z,55.4
2023-10-19T17:49:21.166Z,51.4
2023-10-19T17:52:21.065Z,52.5
2023-10-19T17:55:21.216Z,52.6
2023-10-19T17:58:21.040Z,52.3
2023-10-19T18:01:22.216Z,51.4
2023-10-19T18:04:22.201Z,52.1
2023-10-19T18:07:21.083Z,51.4
2023-10-19T18:10:21.631Z,51.5
2023-10-19T18:13:21.025Z,52.3
2023-10-19T18:16:21.198Z,53.3
2023-10-19T18:19:21.217Z,54.2
2023-10-19T18:22:23.393Z,52.9
2023-10-19T18:25:21.014Z,51.2
2023-10-19T18:28:21.092Z,53.0
2023-10-19T18:31:21.248Z,53.0
2023-10-19T18:34:21.201Z,54.4
2023-10-19T18:37:21.027Z,53.3
2023-10-19T18:40:21.212Z,53.3
2023-10-19T18:43:21.192Z,51.6
2023-10-19T18:46:21.112Z,53.3
2023-10-19T18:49:21.213Z,53.6
2023-10-19T18:52:21.140Z,49.7
2023-10-19T18:55:21.090Z,53.5
2023-10-19T18:58:21.113Z,52.3
2023-10-19T19:01:21.360Z,53.7
2023-10-19T19:04:21.278Z,52.8
2023-10-19T19:07:20.993Z,51.1
2023-10-19T19:10:21.158Z,52.8
2023-10-19T19:13:20.847Z,54.0
2023-10-19T19:16:20.932Z,53.0
2023-10-19T19:19:21.339Z,52.6
2023-10-19T19:22:20.897Z,51.8
2023-10-19T19:25:20.849Z,50.9
2023-10-19T19:28:20.862Z,52.3
2023-10-19T19:31:21.302Z,53.2
2023-10-19T19:34:20.985Z,51.4
2023-10-19T19:37:20.857Z,51.5
2023-10-19T19:40:21.086Z,52.3
2023-10-19T19:43:20.841Z,48.1
2023-10-19T19:46:21.075Z,52.9
2023-10-19T19:49:20.989Z,52.5
2023-10-19T19:52:22.469Z,51.4
2023-10-19T19:55:20.851Z,52.3
2023-10-19T19:58:20.895Z,52.6
2023-10-19T20:01:20.919Z,51.9
2023-10-19T20:04:21.583Z,52.2
2023-10-19T20:07:20.944Z,52.5
2023-10-19T20:10:21.064Z,51.2
2023-10-19T20:13:20.930Z,51.8
2023-10-19T20:16:20.906Z,0.0
2023-10-19T20:19:21.464Z,51.4
2023-10-19T20:22:20.845Z,48.1
2023-10-19T20:25:21.421Z,49.2
2023-10-19T20:28:20.900Z,49.7
2023-10-19T20:31:21.012Z,50.9
2023-10-19T20:34:20.942Z,51.1
2023-10-19T20:37:20.887Z,52.3
2023-10-19T20:40:20.845Z,53.5
2023-10-19T20:43:20.890Z,51.9
2023-10-19T20:46:21.107Z,54.6
2023-10-19T20:49:21.018Z,53.6
2023-10-19T20:52:20.884Z,52.9
2023-10-19T20:55:21.226Z,53.5
2023-10-19T20:58:20.911Z,51.2
2023-10-19T21:01:21.012Z,54.3
2023-10-19T21:04:21.246Z,55.3
2023-10-19T21:07:20.920Z,54.3
2023-10-19T21:10:20.974Z,53.9
2023-10-19T21:13:20.831Z,54.3
2023-10-19T21:16:21.056Z,53.9
2023-10-19T21:19:35.478Z,54.7
2023-10-19T21:22:20.905Z,56.3
2023-10-19T21:25:22.418Z,55.6
2023-10-19T21:28:20.982Z,55.4
2023-10-19T21:31:20.989Z,56.4
2023-10-19T21:34:21.139Z,55.7
2023-10-19T21:37:21.691Z,58.4
2023-10-19T21:40:20.830Z,58.1
2023-10-19T21:43:20.907Z,57.5
2023-10-19T21:46:21.624Z,56.3
2023-10-19T21:49:20.961Z,57.5
2023-10-19T21:52:20.889Z,56.0
2023-10-19T21:55:21.368Z,57.2
2023-10-19T21:58:21.183Z,57.0
2023-10-19T22:01:21.485Z,60.6
2023-10-19T22:04:32.687Z,60.2
2023-10-19T22:07:21.077Z,59.2
2023-10-19T22:10:20.958Z,61.4
2023-10-19T22:13:23.336Z,63.0
2023-10-19T22:16:21.171Z,59.8
2023-10-19T22:19:21.077Z,61.6
2023-10-19T22:22:21.052Z,61.7
2023-10-19T22:25:21.222Z,63.5
2023-10-19T22:28:21.020Z,63.3
2023-10-19T22:31:21.157Z,62.4
2023-10-19T22:34:21.449Z,62.3
2023-10-19T22:37:20.965Z,63.5
2023-10-19T22:40:21.014Z,59.9
2023-10-19T22:43:21.051Z,59.8
2023-10-19T22:46:21.232Z,60.2
2023-10-19T22:49:21.197Z,57.8
2023-10-19T22:52:21.032Z,57.1
2023-10-19T22:55:21.274Z,56.1
2023-10-19T22:58:20.959Z,56.4
2023-10-19T23:01:21.298Z,56.7
2023-10-19T23:04:21.081Z,57.7
2023-10-19T23:07:20.986Z,57.1
2023-10-19T23:10:21.079Z,57.2
2023-10-19T23:13:20.992Z,58.1
2023-10-19T23:16:21.159Z,56.7
2023-10-19T23:19:21.187Z,58.8
2023-10-19T23:22:21.003Z,60.7
2023-10-19T23:25:21.125Z,61.2
2023-10-19T23:28:21.025Z,57.8
2023-10-19T23:31:21.060Z,60.6
2023-10-19T23:34:21.178Z,59.1
2023-10-19T23:37:20.940Z,59.2
2023-10-19T23:40:21.085Z,59.8
2023-10-19T23:43:21.006Z,60.7
2023-10-19T23:46:21.217Z,59.5
2023-10-19T23:49:21.276Z,59.5
2023-10-19T23:52:21.039Z,61.0
2023-10-19T23:55:21.209Z,60.9
2023-10-19T23:58:20.974Z,60.9
